createdAt,value
2022-08-09T00:00:21.036Z,98807.96
2022-08-09T00:02:49.383Z,98808.86
2022-08-09T00:06:18.957Z,98813.31
2022-08-09T00:08:31.400Z,98813.87
2022-08-09T00:10:59.919Z,98819.32
2022-08-09T00:13:28.364Z,98816.96
2022-08-09T00:16:02.814Z,98819.11
2022-08-09T00:18:34.708Z,98817.33
2022-08-09T00:21:05.291Z,98819.27
2022-08-09T00:23:57.681Z,98820.50
2022-08-09T00:26:32.222Z,98817.55
2022-08-09T00:29:02.181Z,98818.48
2022-08-09T00:31:57.467Z,98820.84
2022-08-09T00:34:19.141Z,98821.29
2022-08-09T00:36:52.039Z,98820.85
2022-08-09T00:40:13.055Z,98821.30
2022-08-09T00:44:14.577Z,98820.38
2022-08-09T00:44:57.138Z,98825.79
2022-08-09T00:47:25.203Z,98827.80
2022-08-09T00:49:54.788Z,98826.45
2022-08-09T00:52:30.242Z,98827.71
2022-08-09T00:55:00.295Z,98823.23
2022-08-09T00:57:33.674Z,98825.80
2022-08-09T01:00:20.469Z,98827.45
2022-08-09T01:02:51.903Z,98833.90
2022-08-09T01:05:53.619Z,98834.71
2022-08-09T01:08:36.859Z,98831.69
2022-08-09T01:11:20.601Z,98829.73
2022-08-09T01:14:07.785Z,98826.98
2022-08-09T01:16:47.308Z,98828.09
2022-08-09T01:20:01.745Z,98825.83
2022-08-09T01:23:12.354Z,98830.27
2022-08-09T01:26:03.077Z,98831.70
2022-08-09T01:28:30.293Z,98833.52
2022-08-09T01:30:59.035Z,98829.91
2022-08-09T01:33:30.119Z,98829.47
2022-08-09T01:36:08.451Z,98824.80
2022-08-09T01:38:44.265Z,98823.44
2022-08-09T01:41:19.458Z,98824.98
2022-08-09T01:43:56.679Z,98827.16
2022-08-09T01:46:29.920Z,98826.79
2022-08-09T01:49:10.662Z,98829.63
2022-08-09T01:51:44.593Z,98828.20
2022-08-09T01:54:25.552Z,98829.34
2022-08-09T01:56:56.806Z,98826.34
2022-08-09T01:59:24.477Z,98826.73
2022-08-09T02:02:02.134Z,98824.94
2022-08-09T02:04:31.985Z,98826.84
2022-08-09T02:07:18.140Z,98826.60
2022-08-09T02:10:29.806Z,98828.26
2022-08-09T02:12:58.648Z,98828.70
2022-08-09T02:15:27.010Z,98824.55
2022-08-09T02:18:23.674Z,98825.87
2022-08-09T02:21:08.638Z,98827.77
2022-08-09T02:23:43.237Z,98831.17
2022-08-09T02:26:25.281Z,98829.85
2022-08-09T02:28:59.583Z,98826.91
2022-08-09T02:31:36.446Z,98824.73
2022-08-09T02:34:13.602Z,98819.81
2022-08-09T02:36:56.863Z,98824.08
2022-08-09T02:39:33.785Z,98828.45
2022-08-09T02:42:08.657Z,98831.85
2022-08-09T02:44:41.763Z,98829.06
2022-08-09T02:47:10.550Z,98826.89
2022-08-09T02:50:15.177Z,98829.90
2022-08-09T02:52:50.004Z,98828.98
2022-08-09T02:55:24.939Z,98828.09
2022-08-09T02:58:36.040Z,98828.47
2022-08-09T03:01:06.136Z,98831.05
2022-08-09T03:03:59.573Z,98833.90
2022-08-09T03:06:23.603Z,98836.20
2022-08-09T03:08:52.680Z,98837.57
2022-08-09T03:12:05.372Z,98839.86
2022-08-09T03:14:18.206Z,98836.73
2022-08-09T03:16:48.652Z,98839.80
2022-08-09T03:19:52.836Z,98841.95
2022-08-09T03:22:12.151Z,98846.48
2022-08-09T03:24:52.587Z,98845.29
2022-08-09T03:27:27.720Z,98843.86
2022-08-09T03:30:05.327Z,98844.63
2022-08-09T03:32:36.929Z,98840.31
2022-08-09T03:35:24.156Z,98840.58
2022-08-09T03:37:55.982Z,98846.93
2022-08-09T03:40:25.652Z,98843.98
2022-08-09T03:43:03.347Z,98842.61
2022-08-09T03:46:04.342Z,98839.33
2022-08-09T03:48:30.629Z,98838.55
2022-08-09T03:50:58.695Z,98836.43
2022-08-09T03:53:32.097Z,98839.11
2022-08-09T03:56:07.534Z,98838.34
2022-08-09T03:58:35.027Z,98838.95
2022-08-09T04:01:02.242Z,98841.02
2022-08-09T04:03:35.402Z,98843.27
2022-08-09T04:06:16.138Z,98847.64
2022-08-09T04:08:46.629Z,98846.44
2022-08-09T04:11:14.157Z,98845.02
2022-08-09T04:14:37.065Z,98847.77
2022-08-09T04:16:31.322Z,98844.14
2022-08-09T04:18:59.384Z,98842.61
2022-08-09T04:21:27.157Z,98843.33
2022-08-09T04:24:02.338Z,98839.48
2022-08-09T04:26:35.112Z,98835.27
2022-08-09T04:29:10.883Z,98838.89
2022-08-09T04:31:47.296Z,98841.40
2022-08-09T04:34:30.450Z,98839.04
2022-08-09T04:37:02.514Z,98837.94
2022-08-09T04:39:30.861Z,98833.23
2022-08-09T04:41:59.634Z,98832.70
2022-08-09T04:44:27.630Z,98834.54
2022-08-09T04:46:58.475Z,98835.58
2022-08-09T04:49:54.644Z,98839.77
2022-08-09T04:52:27.776Z,98837.58
2022-08-09T04:54:56.979Z,98838.98
2022-08-09T04:57:25.235Z,98843.58
2022-08-09T04:59:54.300Z,98842.63
2022-08-09T05:02:23.131Z,98844.06
2022-08-09T05:04:55.256Z,98847.08
2022-08-09T05:07:27.764Z,98846.29
2022-08-09T05:10:04.963Z,98844.77
2022-08-09T05:12:33.063Z,98852.19
2022-08-09T05:15:01.103Z,98856.83
2022-08-09T05:18:55.135Z,98858.34
2022-08-09T05:20:29.651Z,98859.92
2022-08-09T05:23:54.163Z,98864.27
2022-08-09T05:25:46.636Z,98868.49
2022-08-09T05:28:19.221Z,98872.40
2022-08-09T05:30:47.916Z,98872.46
2022-08-09T05:33:26.472Z,98878.36
2022-08-09T05:36:04.395Z,98884.38
2022-08-09T05:38:34.468Z,98882.70
2022-08-09T05:41:06.974Z,98887.03
2022-08-09T05:43:45.134Z,98886.45
2022-08-09T05:46:16.498Z,98890.80
2022-08-09T05:48:44.339Z,98889.71
2022-08-09T05:51:30.119Z,98889.68
2022-08-09T05:54:06.492Z,98889.58
2022-08-09T05:56:33.739Z,98893.73
2022-08-09T05:59:01.006Z,98895.37
2022-08-09T06:01:34.185Z,98895.98
2022-08-09T06:04:12.273Z,98893.69
2022-08-09T06:06:45.163Z,98897.48
2022-08-09T06:09:40.533Z,98897.00
2022-08-09T06:12:05.830Z,98903.08
2022-08-09T06:14:35.293Z,98904.98
2022-08-09T06:17:09.462Z,98904.21
2022-08-09T06:19:37.505Z,98906.40
2022-08-09T06:22:15.399Z,98909.54
2022-08-09T06:24:45.642Z,98905.33
2022-08-09T06:27:16.416Z,98904.32
2022-08-09T06:29:48.189Z,98907.77
2022-08-09T06:32:53.173Z,98903.00
2022-08-09T06:35:15.988Z,98907.45
2022-08-09T06:37:52.913Z,98911.17
2022-08-09T06:40:30.800Z,98914.68
2022-08-09T06:43:01.495Z,98920.22
2022-08-09T06:46:06.746Z,98919.45
2022-08-09T06:48:26.167Z,98927.40
2022-08-09T06:50:59.709Z,98929.91
2022-08-09T06:53:27.156Z,98930.68
2022-08-09T06:56:03.865Z,98936.64
2022-08-09T07:00:46.830Z,98943.63
2022-08-09T07:01:18.945Z,98943.67
2022-08-09T07:03:52.381Z,98947.81
2022-08-09T07:06:21.201Z,98948.77
2022-08-09T07:08:49.541Z,98952.78
2022-08-09T07:11:25.199Z,98953.91
2022-08-09T07:14:05.374Z,98957.94
2022-08-09T07:16:39.085Z,98961.32
2022-08-09T07:19:15.186Z,98964.75
2022-08-09T07:21:55.727Z,98961.96
2022-08-09T07:24:31.786Z,98956.59
2022-08-09T07:27:11.146Z,98959.29
2022-08-09T07:29:58.550Z,98955.61
2022-08-09T07:32:33.637Z,98962.98
2022-08-09T07:35:10.276Z,98963.52
2022-08-09T07:37:44.153Z,98965.98
2022-08-09T07:40:18.610Z,98964.38
2022-08-09T07:42:55.673Z,98966.64
2022-08-09T07:45:37.663Z,98970.28
2022-08-09T07:48:06.202Z,98969.11
2022-08-09T07:50:36.372Z,98970.66
2022-08-09T07:53:05.299Z,98973.33
2022-08-09T07:55:41.247Z,98976.95
2022-08-09T07:58:59.545Z,98979.04
2022-08-09T08:01:33.067Z,98980.66
2022-08-09T08:04:02.602Z,98985.55
2022-08-09T08:06:32.141Z,98983.06
2022-08-09T08:09:04.937Z,98984.39
2022-08-09T08:12:10.167Z,98984.55
2022-08-09T08:14:24.193Z,98984.89
2022-08-09T08:17:00.671Z,98985.89
2022-08-09T08:19:35.370Z,98985.88
2022-08-09T08:22:03.295Z,98987.86
2022-08-09T08:24:35.223Z,98984.50
2022-08-09T08:27:16.826Z,98984.19
2022-08-09T08:29:48.697Z,98984.77
2022-08-09T08:32:24.251Z,98982.60
2022-08-09T08:34:59.289Z,98984.89
2022-08-09T08:37:41.605Z,98983.38
2022-08-09T08:40:15.075Z,98980.98
2022-08-09T08:42:43.652Z,98978.52
2022-08-09T08:45:14.555Z,98977.48
2022-08-09T08:47:45.153Z,98978.31
2022-08-09T08:50:18.215Z,98977.85
2022-08-09T08:52:59.056Z,98978.14
2022-08-09T08:55:28.116Z,98979.36
2022-08-09T08:57:58.502Z,98978.77
2022-08-09T09:00:30.479Z,98983.06
2022-08-09T09:03:12.040Z,98984.23
2022-08-09T09:05:59.855Z,98981.08
2022-08-09T09:08:40.410Z,98982.21
2022-08-09T09:11:08.635Z,98983.68
2022-08-09T09:13:57.063Z,98983.79
2022-08-09T09:16:35.839Z,98982.84
2022-08-09T09:22:07.635Z,98992.80
2022-08-09T09:26:01.063Z,98996.23
2022-08-09T09:28:05.188Z,98995.70
2022-08-09T09:30:41.347Z,98997.95
2022-08-09T09:33:16.783Z,98996.05
2022-08-09T09:36:02.243Z,98994.45
2022-08-09T09:38:43.969Z,99001.08
2022-08-09T09:41:25.006Z,98994.97
2022-08-09T09:44:10.707Z,98997.91
2022-08-09T09:46:46.209Z,99001.12
2022-08-09T09:49:31.974Z,99001.52
2022-08-09T09:52:16.477Z,99004.79
2022-08-09T09:55:27.686Z,99004.14
2022-08-09T09:58:19.340Z,99005.08
2022-08-09T10:00:52.633Z,99007.14
2022-08-09T10:03:57.016Z,99006.30
2022-08-09T10:06:28.078Z,99012.68
2022-08-09T10:09:02.990Z,99009.46
2022-08-09T10:11:59.488Z,99008.38
2022-08-09T10:14:33.363Z,99008.70
2022-08-09T10:17:27.661Z,99010.11
2022-08-09T10:20:00.240Z,99014.85
2022-08-09T10:22:33.339Z,99018.41
2022-08-09T10:25:12.046Z,99019.73
2022-08-09T10:27:57.272Z,99017.75
2022-08-09T10:34:08.256Z,99015.20
2022-08-09T10:36:05.433Z,99016.70
2022-08-09T10:38:56.173Z,99014.41
2022-08-09T10:41:24.701Z,99012.98
2022-08-09T10:43:59.563Z,99013.07
2022-08-09T10:46:55.649Z,99016.99
2022-08-09T10:49:51.250Z,99014.36
2022-08-09T10:52:20.592Z,99017.83
2022-08-09T10:54:53.293Z,99014.05
2022-08-09T10:57:20.838Z,99010.62
2022-08-09T10:59:58.185Z,99010.12
2022-08-09T11:03:14.173Z,99007.08
2022-08-09T11:05:30.262Z,99010.54
2022-08-09T11:08:35.247Z,99011.69
2022-08-09T11:11:11.501Z,99005.73
2022-08-09T11:13:49.806Z,99007.80
2022-08-09T11:16:33.549Z,99006.50
2022-08-09T11:19:09.863Z,99005.05
2022-08-09T11:21:55.256Z,99004.17
2022-08-09T11:24:59.390Z,99002.14
2022-08-09T11:28:05.076Z,99007.05
2022-08-09T11:30:33.705Z,99006.64
2022-08-09T11:33:21.002Z,99002.98
2022-08-09T11:35:57.416Z,99002.92
2022-08-09T11:38:32.472Z,99003.26
2022-08-09T11:41:05.641Z,99007.25
2022-08-09T11:43:37.485Z,99003.43
2022-08-09T11:46:06.503Z,99003.05
2022-08-09T11:48:46.139Z,99005.23
2022-08-09T11:52:53.762Z,99000.80
2022-08-09T11:54:27.576Z,98998.50
2022-08-09T11:57:47.524Z,98996.14
2022-08-09T12:00:27.594Z,98991.65
2022-08-09T12:02:56.890Z,98991.08
2022-08-09T12:05:39.506Z,98993.09
2022-08-09T12:08:12.428Z,98996.84
2022-08-09T12:10:48.990Z,98996.74
2022-08-09T12:14:09.439Z,98999.42
2022-08-09T12:16:40.415Z,99004.51
2022-08-09T12:19:09.993Z,99001.98
2022-08-09T12:21:50.358Z,99002.62
2022-08-09T12:24:26.205Z,99000.21
2022-08-09T12:29:00.100Z,99001.66
2022-08-09T12:30:00.131Z,98999.10
2022-08-09T12:32:41.696Z,99001.17
2022-08-09T12:35:16.982Z,99001.29
2022-08-09T12:37:49.993Z,98996.81
2022-08-09T12:40:20.819Z,98993.09
2022-08-09T12:42:50.242Z,98989.15
2022-08-09T12:45:34.673Z,98987.74
2022-08-09T12:48:20.549Z,98985.19
2022-08-09T12:50:58.083Z,98981.65
2022-08-09T12:53:38.662Z,98979.86
2022-08-09T12:56:39.451Z,98981.06
2022-08-09T12:59:11.887Z,98980.08
2022-08-09T13:01:47.002Z,98978.88
2022-08-09T13:04:37.071Z,98982.33
2022-08-09T13:07:19.968Z,98981.02
2022-08-09T13:10:03.677Z,98979.21
2022-08-09T13:12:32.367Z,98978.27
2022-08-09T13:15:07.547Z,98977.46
2022-08-09T13:18:03.480Z,98977.08
2022-08-09T13:21:04.046Z,98975.38
2022-08-09T13:24:16.136Z,98973.08
2022-08-09T13:26:37.462Z,98972.63
2022-08-09T13:29:42.100Z,98972.30
2022-08-09T13:32:16.285Z,98968.32
2022-08-09T13:34:47.216Z,98966.85
2022-08-09T13:37:50.960Z,98967.77
2022-08-09T13:41:50.969Z,98964.34
2022-08-09T13:42:54.468Z,98968.17
2022-08-09T13:45:21.842Z,98967.67
2022-08-09T13:47:59.950Z,98970.14
2022-08-09T13:50:30.516Z,98969.42
2022-08-09T13:52:59.155Z,98968.34
2022-08-09T13:55:28.937Z,98970.69
2022-08-09T13:57:59.581Z,98971.87
2022-08-09T14:00:28.692Z,98972.64
2022-08-09T14:03:03.190Z,98974.89
2022-08-09T14:05:56.563Z,98979.92
2022-08-09T14:08:30.719Z,98982.75
2022-08-09T14:11:00.470Z,98984.45
2022-08-09T14:14:22.167Z,98986.59
2022-08-09T14:16:17.886Z,98988.27
2022-08-09T14:18:49.363Z,98992.14
2022-08-09T14:21:20.718Z,98994.91
2022-08-09T14:23:56.596Z,98994.42
2022-08-09T14:26:32.865Z,98993.09
2022-08-09T14:29:03.126Z,98988.27
2022-08-09T14:31:36.353Z,98988.67
2022-08-09T14:34:31.423Z,98991.48
2022-08-09T14:37:07.516Z,98990.07
2022-08-09T14:39:47.972Z,98990.63
2022-08-09T14:42:30.060Z,98990.89
2022-08-09T14:46:57.427Z,98992.40
2022-08-09T14:48:05.389Z,98991.73
2022-08-09T14:50:34.495Z,98990.59
2022-08-09T14:53:11.468Z,98991.64
2022-08-09T14:55:41.972Z,98988.20
2022-08-09T14:58:10.256Z,98984.52
2022-08-09T15:00:39.887Z,98983.06
2022-08-09T15:03:10.557Z,98981.27
2022-08-09T15:05:38.348Z,98979.39
2022-08-09T15:08:06.212Z,98980.48
2022-08-09T15:10:38.115Z,98979.79
2022-08-09T15:13:08.779Z,98978.55
2022-08-09T15:15:39.320Z,98984.41
2022-08-09T15:18:08.306Z,98984.77
2022-08-09T15:21:55.464Z,98987.60
2022-08-09T15:24:00.602Z,98985.02
2022-08-09T15:26:18.382Z,98986.98
2022-08-09T15:28:54.694Z,98989.88
2022-08-09T15:31:22.447Z,98987.14
2022-08-09T15:34:18.281Z,98984.00
2022-08-09T15:36:55.362Z,98983.73
2022-08-09T15:39:34.661Z,98982.88
2022-08-09T15:42:03.152Z,98983.88
2022-08-09T15:44:32.606Z,98986.02
2022-08-09T15:47:01.030Z,98985.90
2022-08-09T15:49:28.654Z,98989.86
2022-08-09T15:52:05.279Z,98988.52
2022-08-09T15:54:44.769Z,98988.56
2022-08-09T15:57:19.071Z,98986.52
2022-08-09T16:00:14.019Z,98985.83
2022-08-09T16:02:53.792Z,98986.83
2022-08-09T16:05:23.316Z,98994.65
2022-08-09T16:07:51.166Z,98997.82
2022-08-09T16:10:54.997Z,99003.12
2022-08-09T16:13:20.974Z,99005.01
2022-08-09T16:16:11.778Z,99006.88
2022-08-09T16:18:45.590Z,99009.73
2022-08-09T16:21:16.979Z,99012.67
2022-08-09T16:23:50.908Z,99014.48
2022-08-09T16:26:33.929Z,99015.07
2022-08-09T16:29:13.644Z,99011.45
2022-08-09T16:32:17.893Z,99008.76
2022-08-09T16:34:55.495Z,99017.73
2022-08-09T16:37:17.876Z,99015.30
2022-08-09T16:39:54.515Z,99017.98
2022-08-09T16:42:33.073Z,99021.09
2022-08-09T16:45:00.335Z,99022.51
2022-08-09T16:48:41.280Z,99027.32
2022-08-09T16:50:29.177Z,99031.05
2022-08-09T16:52:58.255Z,99034.91
2022-08-09T16:55:25.473Z,99038.98
2022-08-09T16:58:08.799Z,99040.02
2022-08-09T17:00:38.713Z,99040.40
2022-08-09T17:03:21.787Z,99045.23
2022-08-09T17:06:09.328Z,99038.71
2022-08-09T17:08:59.977Z,99038.44
2022-08-09T17:11:32.899Z,99043.07
2022-08-09T17:14:25.511Z,99044.13
2022-08-09T17:17:02.161Z,99048.17
2022-08-09T17:20:05.008Z,99049.88
2022-08-09T17:22:30.699Z,99052.77
2022-08-09T17:25:10.227Z,99057.64
2022-08-09T17:27:49.618Z,99058.54
2022-08-09T17:30:25.465Z,99058.73
2022-08-09T17:33:00.650Z,99060.20
2022-08-09T17:35:34.354Z,99058.62
2022-08-09T17:38:14.411Z,99060.80
2022-08-09T17:40:52.090Z,99064.13
2022-08-09T17:43:34.338Z,99062.83
2022-08-09T17:46:08.974Z,99067.43
2022-08-09T17:48:51.514Z,99066.69
2022-08-09T17:51:22.664Z,99071.41
2022-08-09T17:53:55.187Z,99073.91
2022-08-09T17:56:35.416Z,99078.45
2022-08-09T17:59:09.654Z,99081.26
2022-08-09T18:02:06.680Z,99080.00
2022-08-09T18:04:33.409Z,99082.21
2022-08-09T18:07:23.665Z,99080.56
2022-08-09T18:10:04.958Z,99079.77
2022-08-09T18:13:39.934Z,99078.20
2022-08-09T18:15:50.336Z,99079.88
2022-08-09T18:18:25.324Z,99085.27
2022-08-09T18:21:10.407Z,99086.84
2022-08-09T18:24:10.222Z,99085.77
2022-08-09T18:26:31.318Z,99092.52
2022-08-09T18:30:38.595Z,99091.36
2022-08-09T18:31:55.370Z,99092.50
2022-08-09T18:34:28.324Z,99092.52
2022-08-09T18:36:57.704Z,99093.11
2022-08-09T18:39:32.045Z,99097.21
2022-08-09T18:42:08.764Z,99098.38
2022-08-09T18:44:38.614Z,99097.12
2022-08-09T18:47:15.908Z,99098.06
2022-08-09T18:49:49.500Z,99098.65
2022-08-09T18:52:24.775Z,99098.36
2022-08-09T18:54:54.983Z,99097.23
2022-08-09T18:57:24.036Z,99098.07
2022-08-09T19:00:20.548Z,99098.52
2022-08-09T19:03:00.156Z,99099.21
2022-08-09T19:06:02.260Z,99100.88
2022-08-09T19:08:21.374Z,99101.02
2022-08-09T19:10:57.826Z,99099.09
2022-08-09T19:13:49.868Z,99097.48
2022-08-09T19:16:21.141Z,99095.34
2022-08-09T19:18:57.118Z,99092.16
2022-08-09T19:21:47.897Z,99096.89
2022-08-09T19:24:33.433Z,99095.80
2022-08-09T19:27:16.698Z,99094.77
2022-08-09T19:30:22.173Z,99093.95
2022-08-09T19:32:37.396Z,99092.41
2022-08-09T19:35:12.307Z,99093.16
2022-08-09T19:37:56.079Z,99090.45
2022-08-09T19:40:34.472Z,99090.02
2022-08-09T19:43:10.075Z,99089.65
2022-08-09T19:45:45.011Z,99090.39
2022-08-09T19:48:17.947Z,99094.58
2022-08-09T19:51:07.056Z,99090.89
2022-08-09T19:53:49.578Z,99094.15
2022-08-09T19:56:29.081Z,99094.44
2022-08-09T19:59:27.798Z,99096.70
2022-08-09T20:02:07.495Z,99099.91
2022-08-09T20:04:55.109Z,99105.73
2022-08-09T20:07:23.905Z,99106.06
2022-08-09T20:09:52.868Z,99106.55
2022-08-09T20:12:29.937Z,99106.80
2022-08-09T20:16:50.330Z,99107.41
2022-08-09T20:19:47.459Z,99107.34
2022-08-09T20:25:01.474Z,99105.57
2022-08-09T20:27:32.944Z,99103.89
2022-08-09T20:30:01.528Z,99103.55
2022-08-09T20:32:34.010Z,99100.34
2022-08-09T20:35:02.683Z,99098.34
2022-08-09T20:38:18.681Z,99098.39
2022-08-09T20:40:26.949Z,99100.33
2022-08-09T20:43:12.199Z,99103.00
2022-08-09T20:46:00.317Z,99103.23
2022-08-09T20:48:33.074Z,99103.95
2022-08-09T20:51:06.169Z,99100.05
2022-08-09T20:53:36.798Z,99100.45
2022-08-09T20:56:20.095Z,99098.40
2022-08-09T20:58:58.199Z,99093.98
2022-08-09T21:01:34.540Z,99092.40
2022-08-09T21:05:54.279Z,99090.74
2022-08-09T21:07:12.254Z,99093.61
2022-08-09T21:09:56.550Z,99092.39
2022-08-09T21:15:17.692Z,99092.56
2022-08-09T21:18:21.164Z,99091.12
2022-08-09T21:20:38.593Z,99088.85
2022-08-09T21:23:10.841Z,99086.61
2022-08-09T21:25:53.957Z,99083.73
2022-08-09T21:28:33.573Z,99089.54
2022-08-09T21:31:16.269Z,99090.35
2022-08-09T21:33:51.320Z,99093.23
2022-08-09T21:36:21.155Z,99093.49
2022-08-09T21:38:57.481Z,99090.25
2022-08-09T21:42:03.855Z,99087.78
2022-08-09T21:44:34.343Z,99088.08
2022-08-09T21:47:08.718Z,99087.65
2022-08-09T21:49:40.032Z,99085.86
2022-08-09T21:52:14.774Z,99080.77
2022-08-09T21:54:50.798Z,99080.48
2022-08-09T21:57:38.943Z,99079.39
2022-08-09T22:00:18.187Z,99078.61
2022-08-09T22:02:58.776Z,99081.45
2022-08-09T22:05:35.852Z,99080.52
2022-08-09T22:08:06.424Z,99080.09
2022-08-09T22:10:34.176Z,99082.05
2022-08-09T22:13:07.235Z,99081.38
2022-08-09T22:15:38.822Z,99085.89
2022-08-09T22:18:11.917Z,99085.03
2022-08-09T22:20:40.153Z,99084.14
2022-08-09T22:23:13.319Z,99088.11
2022-08-09T22:26:08.248Z,99084.89
2022-08-09T22:28:32.957Z,99085.34
2022-08-09T22:31:01.511Z,99083.39
2022-08-09T22:33:42.470Z,99083.64
2022-08-09T22:36:19.417Z,99083.16
2022-08-09T22:38:47.638Z,99084.83
2022-08-09T22:41:15.509Z,99085.52
2022-08-09T22:44:01.923Z,99085.28
2022-08-09T22:48:16.722Z,99084.60
2022-08-09T22:49:19.502Z,99085.42
2022-08-09T22:51:49.669Z,99087.77
2022-08-09T22:54:26.045Z,99084.48
2022-08-09T22:56:56.989Z,99083.20
2022-08-09T22:59:55.400Z,99082.06
2022-08-09T23:02:15.723Z,99078.91
2022-08-09T23:04:53.736Z,99079.34
2022-08-09T23:08:23.355Z,99078.69
2022-08-09T23:10:29.933Z,99074.82
2022-08-09T23:12:57.729Z,99073.52
2022-08-09T23:15:25.156Z,99071.05
2022-08-09T23:17:52.426Z,99070.19
2022-08-09T23:20:19.763Z,99070.52
2022-08-09T23:22:47.015Z,99065.76
2022-08-09T23:25:16.726Z,99064.43
2022-08-09T23:28:14.082Z,99063.82
2022-08-09T23:30:31.504Z,99065.67
2022-08-09T23:32:58.752Z,99066.20
2022-08-09T23:35:26.212Z,99069.65
2022-08-09T23:37:53.474Z,99067.69
2022-08-09T23:40:23.379Z,99065.66
2022-08-09T23:42:53.495Z,99064.20
2022-08-09T23:45:37.206Z,99058.16
2022-08-09T23:48:08.947Z,99055.36
2022-08-09T23:50:36.897Z,99051.51
2022-08-09T23:53:04.342Z,99050.09
2022-08-09T23:55:36.105Z,99052.99
2022-08-09T23:58:10.747Z,99051.71
